Time;durP1;ratioP1;P1;durP2;ratioP2;P2;SDS_P1;SDS_P2;PMS_P1;PMS_P2;Temp;Humidity;BMP_temperature;BMP_pressure;BME280_temperature;BME280_humidity;BME280_pressure;Samples;Min_cycle;Max_cycle;Signal;HPM_P1;HPM_P2
2023/01/18 00:01:12;;;;;;;40.50;16.58;;;;;;;;;;5039195;28;20478;-64
2023/01/18 00:03:38;;;;;;;39.88;18.65;;;;;;;;;;5039150;28;20036;-65
2023/01/18 00:06:09;;;;;;;39.58;17.75;;;;;;;;;;5045499;28;20395;-64
2023/01/18 00:08:37;;;;;;;43.75;18.58;;;;;;;;;;5043752;28;20395;-64
2023/01/18 00:11:11;;;;;;;42.03;16.95;;;;;;;;;;5042082;28;20033;-65
2023/01/18 00:13:38;;;;;;;38.00;16.83;;;;;;;;;;5041880;28;20028;-65
2023/01/18 00:16:09;;;;;;;47.60;18.92;;;;;;;;;;5046386;28;20072;-64
2023/01/18 00:18:35;;;;;;;35.70;17.58;;;;;;;;;;5046260;28;20032;-64
2023/01/18 00:21:03;;;;;;;39.38;17.40;;;;;;;;;;5042463;28;20599;-64
2023/01/18 00:23:28;;;;;;;39.38;17.77;;;;;;;;;;5042870;28;20038;-66
2023/01/18 00:25:58;;;;;;;39.97;17.27;;;;;;;;;;5043387;28;20044;-65
2023/01/18 00:28:24;;;;;;;37.88;17.60;;;;;;;;;;5040936;28;20520;-66
2023/01/18 00:30:49;;;;;;;38.83;18.98;;;;;;;;;;5024617;28;20068;-63
2023/01/18 00:33:15;;;;;;;39.00;18.52;;;;;;;;;;5045314;28;20393;-66
2023/01/18 00:35:41;;;;;;;40.53;16.73;;;;;;;;;;5044662;28;20034;-65
2023/01/18 00:38:09;;;;;;;39.60;18.15;;;;;;;;;;5040670;28;20156;-66
2023/01/18 00:40:34;;;;;;;45.10;20.47;;;;;;;;;;5043242;28;20112;-66
2023/01/18 00:45:44;;;;;;;39.45;18.92;;;;;;;;;;5042050;28;20032;-64
2023/01/18 00:48:09;;;;;;;45.17;20.08;;;;;;;;;;5041566;28;20048;-64
2023/01/18 00:50:35;;;;;;;39.42;17.73;;;;;;;;;;5045246;28;20118;-64
2023/01/18 00:53:00;;;;;;;43.58;19.02;;;;;;;;;;5042416;28;20509;-64
2023/01/18 00:55:26;;;;;;;52.13;18.83;;;;;;;;;;5041230;28;20456;-65
2023/01/18 00:57:52;;;;;;;42.97;18.35;;;;;;;;;;5042549;28;20056;-65
2023/01/18 01:00:18;;;;;;;57.00;21.73;;;;;;;;;;5044512;28;20029;-65
2023/01/18 01:02:44;;;;;;;43.72;19.38;;;;;;;;;;5045379;28;20383;-64
2023/01/18 01:08:05;;;;;;;48.05;20.42;;;;;;;;;;5042999;28;20036;-65
2023/01/18 01:10:32;;;;;;;46.20;19.50;;;;;;;;;;5044118;28;20025;-64
2023/01/18 01:26:39;;;;;;;39.08;17.98;;;;;;;;;;5043235;28;20586;-65
2023/01/18 01:29:04;;;;;;;38.50;18.23;;;;;;;;;;5042002;28;20044;-64
2023/01/18 01:31:30;;;;;;;41.08;18.40;;;;;;;;;;5038453;28;20029;-64
2023/01/18 01:33:56;;;;;;;43.30;19.48;;;;;;;;;;5044466;28;20025;-63
2023/01/18 01:36:27;;;;;;;41.72;18.85;;;;;;;;;;5044523;28;20757;-63
2023/01/18 01:38:53;;;;;;;42.20;17.60;;;;;;;;;;5044728;28;20119;-64
2023/01/18 01:41:33;;;;;;;48.67;19.40;;;;;;;;;;5040445;28;20037;-64
2023/01/18 01:44:03;;;;;;;39.70;18.58;;;;;;;;;;5040872;28;20059;-64
2023/01/18 01:46:34;;;;;;;48.65;19.80;;;;;;;;;;5042775;28;20045;-64
2023/01/18 01:49:12;;;;;;;43.63;18.17;;;;;;;;;;5043369;28;20032;-64
2023/01/18 01:51:43;;;;;;;43.95;17.48;;;;;;;;;;5036681;28;20068;-63
2023/01/18 01:54:14;;;;;;;39.83;18.65;;;;;;;;;;5042381;28;20091;-63
2023/01/18 01:56:41;;;;;;;42.53;18.80;;;;;;;;;;5044555;28;20029;-66
2023/01/18 01:59:08;;;;;;;42.28;18.92;;;;;;;;;;5038353;28;20041;-65
2023/01/18 02:01:36;;;;;;;44.80;19.23;;;;;;;;;;5043364;28;20036;-65
2023/01/18 02:04:02;;;;;;;39.70;17.90;;;;;;;;;;5044681;28;20047;-65
2023/01/18 02:06:34;;;;;;;45.13;18.30;;;;;;;;;;5039411;28;20079;-66
2023/01/18 02:09:03;;;;;;;45.28;18.52;;;;;;;;;;5044875;28;20419;-65
2023/01/18 02:11:28;;;;;;;42.03;18.10;;;;;;;;;;5043104;28;20034;-65
2023/01/18 02:14:00;;;;;;;43.97;20.15;;;;;;;;;;5021711;28;20295;-65
2023/01/18 02:16:37;;;;;;;42.10;18.33;;;;;;;;;;5047336;28;20028;-65
2023/01/18 02:19:21;;;;;;;36.20;17.58;;;;;;;;;;5044690;28;20093;-64
2023/01/18 02:21:57;;;;;;;44.13;19.48;;;;;;;;;;5042521;28;20063;-65
2023/01/18 02:24:38;;;;;;;37.58;18.35;;;;;;;;;;5039297;28;20112;-66
2023/01/18 02:27:15;;;;;;;41.55;18.10;;;;;;;;;;5043764;28;20059;-65
2023/01/18 02:30:05;;;;;;;45.72;20.55;;;;;;;;;;5040344;28;20116;-65
2023/01/18 02:32:30;;;;;;;55.63;21.90;;;;;;;;;;5039088;28;20044;-64
2023/01/18 02:35:06;;;;;;;45.00;19.48;;;;;;;;;;5043600;28;20033;-64
2023/01/18 02:37:45;;;;;;;43.35;19.95;;;;;;;;;;5043032;28;20029;-64
2023/01/18 02:40:32;;;;;;;49.15;20.33;;;;;;;;;;5039716;28;20618;-64
2023/01/18 02:48:36;;;;;;;55.65;22.40;;;;;;;;;;5043724;28;20029;-64
2023/01/18 02:51:02;;;;;;;60.15;23.02;;;;;;;;;;5038269;28;20502;-64
2023/01/18 02:53:29;;;;;;;60.00;23.30;;;;;;;;;;5041347;28;20076;-64
2023/01/18 02:55:57;;;;;;;52.15;21.83;;;;;;;;;;5043015;28;20071;-64
2023/01/18 02:58:33;;;;;;;68.57;24.30;;;;;;;;;;5042035;28;20639;-64
2023/01/18 03:01:30;;;;;;;57.95;23.77;;;;;;;;;;5038533;28;20438;-64
2023/01/18 03:04:01;;;;;;;46.42;20.60;;;;;;;;;;5043302;28;20056;-64
2023/01/18 03:06:28;;;;;;;53.53;25.13;;;;;;;;;;5039361;28;20057;-65
2023/01/18 03:08:55;;;;;;;59.70;26.23;;;;;;;;;;5038680;28;20040;-65
2023/01/18 03:11:49;;;;;;;64.82;26.42;;;;;;;;;;5039075;28;20135;-65
2023/01/18 03:14:40;;;;;;;59.05;25.08;;;;;;;;;;5040682;28;20532;-65
2023/01/18 03:17:21;;;;;;;52.63;22.77;;;;;;;;;;5038315;28;20044;-65
2023/01/18 03:20:07;;;;;;;53.88;24.27;;;;;;;;;;5040893;28;20044;-64
2023/01/18 03:25:32;;;;;;;56.90;22.00;;;;;;;;;;5034815;28;20029;-64
2023/01/18 03:33:44;;;;;;;63.33;24.73;;;;;;;;;;5040982;28;20060;-65
2023/01/18 03:36:34;;;;;;;52.03;20.67;;;;;;;;;;5044006;28;20076;-65
2023/01/18 03:39:04;;;;;;;58.85;24.60;;;;;;;;;;5041552;28;20037;-65
2023/01/18 03:41:34;;;;;;;69.85;27.42;;;;;;;;;;5045764;28;20636;-65
2023/01/18 03:44:06;;;;;;;59.95;23.77;;;;;;;;;;5038554;28;20036;-63
2023/01/18 03:46:32;;;;;;;46.17;20.05;;;;;;;;;;5043913;28;20030;-64
2023/01/18 03:48:58;;;;;;;51.47;21.60;;;;;;;;;;5039020;28;20486;-64
2023/01/18 03:51:46;;;;;;;58.88;23.67;;;;;;;;;;5036427;28;20063;-65
2023/01/18 03:54:21;;;;;;;69.43;24.95;;;;;;;;;;5023984;28;20045;-64
2023/01/18 03:56:52;;;;;;;59.03;22.75;;;;;;;;;;5040304;28;20087;-64
2023/01/18 03:59:18;;;;;;;65.38;24.52;;;;;;;;;;5046221;28;20033;-65
2023/01/18 04:01:46;;;;;;;50.58;20.88;;;;;;;;;;5045503;28;20035;-64
2023/01/18 04:04:13;;;;;;;40.30;19.63;;;;;;;;;;5039411;28;20058;-65
2023/01/18 04:06:38;;;;;;;54.25;22.83;;;;;;;;;;5045001;28;20068;-65
2023/01/18 04:09:04;;;;;;;42.30;19.20;;;;;;;;;;5045490;28;20052;-65
2023/01/18 04:11:30;;;;;;;31.90;17.33;;;;;;;;;;5038746;28;20041;-64
2023/01/18 04:13:55;;;;;;;36.60;18.08;;;;;;;;;;5044017;28;20504;-65
2023/01/18 04:16:21;;;;;;;41.78;18.35;;;;;;;;;;5039944;28;20049;-64
2023/01/18 04:18:46;;;;;;;38.30;19.88;;;;;;;;;;5041849;28;20684;-65
2023/01/18 04:21:12;;;;;;;34.72;19.05;;;;;;;;;;5044293;28;20107;-65
2023/01/18 04:23:38;;;;;;;31.15;16.35;;;;;;;;;;5038400;28;20033;-65
2023/01/18 04:26:03;;;;;;;34.35;17.85;;;;;;;;;;5039647;28;20039;-65
2023/01/18 04:28:29;;;;;;;36.55;19.55;;;;;;;;;;5042585;28;20045;-64
2023/01/18 04:30:56;;;;;;;29.67;17.15;;;;;;;;;;5044444;28;20033;-65
2023/01/18 04:33:23;;;;;;;37.50;18.83;;;;;;;;;;5041072;28;20865;-65
2023/01/18 04:35:49;;;;;;;38.65;18.67;;;;;;;;;;5025082;28;20039;-66
2023/01/18 04:38:15;;;;;;;37.22;16.40;;;;;;;;;;5042556;28;20261;-65
2023/01/18 04:40:41;;;;;;;38.45;17.95;;;;;;;;;;5041629;28;20037;-66
2023/01/18 04:43:07;;;;;;;38.67;19.05;;;;;;;;;;5041188;28;20029;-66
2023/01/18 04:45:33;;;;;;;38.28;18.63;;;;;;;;;;5042511;28;20029;-65
2023/01/18 04:47:59;;;;;;;37.92;16.02;;;;;;;;;;5041725;28;20556;-65
2023/01/18 04:50:24;;;;;;;36.47;18.58;;;;;;;;;;5035837;28;20045;-65
2023/01/18 04:52:50;;;;;;;42.00;20.20;;;;;;;;;;5045033;28;20045;-65
2023/01/18 04:55:15;;;;;;;38.67;19.52;;;;;;;;;;5044953;28;20112;-65
2023/01/18 04:57:42;;;;;;;42.63;20.08;;;;;;;;;;5039046;28;20096;-65
2023/01/18 05:00:09;;;;;;;44.47;21.38;;;;;;;;;;5044379;28;20033;-66
2023/01/18 05:02:35;;;;;;;45.60;21.15;;;;;;;;;;5045215;28;20043;-66
2023/01/18 05:05:00;;;;;;;51.65;22.88;;;;;;;;;;5045037;28;20037;-65
2023/01/18 05:07:29;;;;;;;45.45;22.55;;;;;;;;;;5041264;28;20087;-65
2023/01/18 05:09:55;;;;;;;55.35;23.88;;;;;;;;;;5035986;28;20082;-65
2023/01/18 05:12:22;;;;;;;44.03;22.00;;;;;;;;;;5043510;28;20033;-65
2023/01/18 05:14:47;;;;;;;42.65;20.35;;;;;;;;;;5041185;28;20056;-65
2023/01/18 05:17:13;;;;;;;65.93;26.67;;;;;;;;;;5039486;28;20519;-66
2023/01/18 05:19:39;;;;;;;56.50;23.88;;;;;;;;;;5045731;28;20605;-65
2023/01/18 05:22:05;;;;;;;61.58;27.08;;;;;;;;;;5042600;28;20113;-66
2023/01/18 05:24:31;;;;;;;78.15;31.73;;;;;;;;;;5040945;28;20128;-66
2023/01/18 05:26:57;;;;;;;63.63;27.40;;;;;;;;;;5024983;28;20087;-66
2023/01/18 05:29:23;;;;;;;52.67;26.17;;;;;;;;;;5043903;28;20036;-66
2023/01/18 05:31:51;;;;;;;57.17;28.25;;;;;;;;;;5022874;28;20028;-66
2023/01/18 05:34:16;;;;;;;57.78;26.70;;;;;;;;;;5038446;28;20685;-65
2023/01/18 05:36:42;;;;;;;60.28;26.45;;;;;;;;;;5045798;28;20041;-65
2023/01/18 05:39:08;;;;;;;52.78;23.30;;;;;;;;;;5041161;28;20443;-65
2023/01/18 05:41:33;;;;;;;57.50;25.52;;;;;;;;;;5054340;22;20053;-61
2023/01/18 05:43:59;;;;;;;71.53;30.73;;;;;;;;;;5038370;28;20033;-60
2023/01/18 05:46:24;;;;;;;67.10;27.75;;;;;;;;;;5043018;28;20450;-61
2023/01/18 05:48:54;;;;;;;78.10;32.92;;;;;;;;;;5041339;28;20045;-61
2023/01/18 05:51:20;;;;;;;54.15;25.95;;;;;;;;;;5038940;28;20095;-61
2023/01/18 05:53:45;;;;;;;74.13;39.58;;;;;;;;;;5035577;28;20046;-60
2023/01/18 05:56:11;;;;;;;70.30;34.95;;;;;;;;;;5032366;28;20041;-61
2023/01/18 05:58:37;;;;;;;51.58;26.55;;;;;;;;;;5033426;28;20099;-61
2023/01/18 06:01:03;;;;;;;45.72;24.67;;;;;;;;;;5036572;28;20033;-60
2023/01/18 06:03:28;;;;;;;37.55;20.55;;;;;;;;;;5040028;28;20060;-61
2023/01/18 06:05:54;;;;;;;43.65;23.65;;;;;;;;;;5031650;28;20397;-59
2023/01/18 06:08:20;;;;;;;33.78;25.88;;;;;;;;;;5034407;28;20037;-61
2023/01/18 06:10:56;;;;;;;31.35;18.58;;;;;;;;;;5032755;28;20037;-61
2023/01/18 06:13:23;;;;;;;28.70;18.00;;;;;;;;;;5038395;28;20037;-60
2023/01/18 06:15:48;;;;;;;33.97;21.20;;;;;;;;;;5039826;28;20541;-61
2023/01/18 06:18:14;;;;;;;31.95;19.40;;;;;;;;;;5036772;28;20025;-62
2023/01/18 06:20:39;;;;;;;43.38;25.45;;;;;;;;;;5043924;28;20037;-62
2023/01/18 06:23:05;;;;;;;23.67;15.23;;;;;;;;;;5039523;28;20036;-62
2023/01/18 06:25:31;;;;;;;26.45;17.98;;;;;;;;;;5037417;28;20369;-62
2023/01/18 06:27:58;;;;;;;23.75;14.63;;;;;;;;;;5036964;28;20037;-62
2023/01/18 06:30:24;;;;;;;23.55;15.35;;;;;;;;;;5040951;28;20426;-62
2023/01/18 06:32:49;;;;;;;27.33;17.88;;;;;;;;;;5039532;28;20090;-63
2023/01/18 06:35:15;;;;;;;25.10;15.65;;;;;;;;;;5021248;28;20519;-62
2023/01/18 06:37:41;;;;;;;23.40;16.15;;;;;;;;;;5038371;28;20356;-62
2023/01/18 06:40:08;;;;;;;23.80;17.58;;;;;;;;;;5040643;28;20029;-61
2023/01/18 06:42:33;;;;;;;26.73;17.05;;;;;;;;;;5041232;28;20037;-61
2023/01/18 06:44:59;;;;;;;26.73;17.73;;;;;;;;;;5025716;28;20036;-62
2023/01/18 06:47:25;;;;;;;29.63;20.65;;;;;;;;;;5040749;28;20029;-62
2023/01/18 06:49:50;;;;;;;28.67;18.60;;;;;;;;;;5040394;28;20039;-62
2023/01/18 06:52:16;;;;;;;27.35;17.48;;;;;;;;;;5039215;28;20021;-61
2023/01/18 06:54:43;;;;;;;30.25;19.45;;;;;;;;;;5037474;28;20388;-63
2023/01/18 06:57:09;;;;;;;27.42;17.73;;;;;;;;;;5042873;28;20491;-62
2023/01/18 06:59:35;;;;;;;29.55;19.67;;;;;;;;;;5039861;28;20136;-63
2023/01/18 07:02:00;;;;;;;34.72;25.40;;;;;;;;;;5037112;28;20420;-62
2023/01/18 07:04:26;;;;;;;21.25;15.07;;;;;;;;;;5043654;28;20183;-63
2023/01/18 07:06:52;;;;;;;20.70;14.55;;;;;;;;;;5039443;28;20396;-63
2023/01/18 07:09:17;;;;;;;25.83;19.25;;;;;;;;;;5037985;28;20056;-63
2023/01/18 07:11:44;;;;;;;27.48;16.95;;;;;;;;;;5038372;28;20040;-63
2023/01/18 07:14:10;;;;;;;33.63;20.23;;;;;;;;;;5040684;28;20037;-63
2023/01/18 07:16:36;;;;;;;32.25;21.23;;;;;;;;;;5041528;28;20037;-63
2023/01/18 07:19:02;;;;;;;26.83;18.70;;;;;;;;;;5037989;28;20033;-63
2023/01/18 07:21:28;;;;;;;29.33;20.77;;;;;;;;;;5037638;28;20544;-63
2023/01/18 07:23:56;;;;;;;33.72;20.17;;;;;;;;;;5041321;28;20129;-62
2023/01/18 07:26:22;;;;;;;29.60;19.35;;;;;;;;;;5040344;28;20044;-63
2023/01/18 07:28:48;;;;;;;32.03;18.00;;;;;;;;;;5036078;28;20040;-63
2023/01/18 07:31:15;;;;;;;36.78;20.92;;;;;;;;;;5044447;28;20041;-63
2023/01/18 07:33:41;;;;;;;33.35;22.23;;;;;;;;;;5040247;28;20037;-63
2023/01/18 07:36:09;;;;;;;35.53;22.02;;;;;;;;;;5036633;28;20033;-63
2023/01/18 07:38:36;;;;;;;39.10;22.83;;;;;;;;;;5041385;28;20069;-64
2023/01/18 07:41:07;;;;;;;40.80;21.42;;;;;;;;;;5041071;28;20514;-63
2023/01/18 07:43:33;;;;;;;38.95;20.50;;;;;;;;;;5036715;28;20114;-64
2023/01/18 07:46:00;;;;;;;50.40;24.33;;;;;;;;;;5038678;28;20032;-64
2023/01/18 07:48:26;;;;;;;65.43;32.25;;;;;;;;;;5035889;28;20029;-63
2023/01/18 07:51:00;;;;;;;50.72;26.05;;;;;;;;;;5038377;28;20094;-64
2023/01/18 07:53:27;;;;;;;37.30;21.48;;;;;;;;;;5036673;28;20124;-64
2023/01/18 07:55:53;;;;;;;34.05;20.15;;;;;;;;;;5040315;28;20090;-63
2023/01/18 07:58:19;;;;;;;48.38;27.80;;;;;;;;;;5039750;28;20083;-63
2023/01/18 08:00:46;;;;;;;40.40;26.80;;;;;;;;;;5037678;28;20032;-63
2023/01/18 08:03:13;;;;;;;29.70;19.60;;;;;;;;;;5036784;28;20110;-63
2023/01/18 08:05:39;;;;;;;35.75;19.65;;;;;;;;;;5036090;28;20029;-64
2023/01/18 08:08:11;;;;;;;34.28;22.50;;;;;;;;;;5036845;28;20034;-64
2023/01/18 08:10:38;;;;;;;35.70;22.52;;;;;;;;;;5034963;28;20437;-63
2023/01/18 08:13:05;;;;;;;35.38;22.63;;;;;;;;;;5043543;28;20480;-64
2023/01/18 08:15:31;;;;;;;31.38;21.35;;;;;;;;;;5045922;28;20029;-62
2023/01/18 08:18:00;;;;;;;32.22;21.35;;;;;;;;;;5042037;28;20024;-63
2023/01/18 08:20:26;;;;;;;32.00;19.17;;;;;;;;;;5041396;28;20071;-64
2023/01/18 08:22:56;;;;;;;30.85;21.52;;;;;;;;;;5042772;28;20041;-62
2023/01/18 08:25:23;;;;;;;23.77;16.23;;;;;;;;;;5038680;28;20220;-64
2023/01/18 08:27:49;;;;;;;23.60;16.67;;;;;;;;;;5038979;28;20427;-64
2023/01/18 08:30:15;;;;;;;25.45;19.20;;;;;;;;;;5043992;28;20036;-64
2023/01/18 08:32:40;;;;;;;22.23;15.75;;;;;;;;;;5042264;28;20041;-64
2023/01/18 08:35:06;;;;;;;25.35;18.08;;;;;;;;;;5043993;28;20507;-64
2023/01/18 08:37:32;;;;;;;27.67;20.48;;;;;;;;;;5041009;28;20033;-64
2023/01/18 08:39:58;;;;;;;21.70;16.50;;;;;;;;;;5042395;28;20498;-64
2023/01/18 08:42:23;;;;;;;21.02;15.65;;;;;;;;;;5040779;28;20447;-64
2023/01/18 08:44:49;;;;;;;25.88;17.52;;;;;;;;;;5041346;28;20028;-64
2023/01/18 08:47:14;;;;;;;22.90;16.80;;;;;;;;;;5038927;28;20590;-64
2023/01/18 08:49:40;;;;;;;22.83;16.95;;;;;;;;;;5045296;28;20540;-63
2023/01/18 08:52:06;;;;;;;21.77;16.55;;;;;;;;;;5042340;28;20032;-64
2023/01/18 08:54:31;;;;;;;20.63;18.25;;;;;;;;;;5037114;28;20554;-64
2023/01/18 08:56:57;;;;;;;22.80;15.48;;;;;;;;;;5038021;28;20526;-64
2023/01/18 08:59:22;;;;;;;22.08;14.13;;;;;;;;;;5041556;28;20021;-64
2023/01/18 09:01:48;;;;;;;19.83;14.73;;;;;;;;;;5039235;28;20044;-64
2023/01/18 09:04:14;;;;;;;21.92;14.80;;;;;;;;;;5038407;28;20032;-64
2023/01/18 09:06:39;;;;;;;24.30;17.20;;;;;;;;;;5041098;28;20032;-64
2023/01/18 09:09:05;;;;;;;21.55;16.55;;;;;;;;;;5044131;28;20033;-64
2023/01/18 09:11:30;;;;;;;19.50;16.17;;;;;;;;;;5036867;28;20095;-64
2023/01/18 09:13:58;;;;;;;23.83;16.02;;;;;;;;;;5038620;28;20033;-64
2023/01/18 09:16:23;;;;;;;23.52;15.73;;;;;;;;;;5043736;28;20032;-64
2023/01/18 09:18:49;;;;;;;18.05;14.43;;;;;;;;;;5029139;28;20033;-64
2023/01/18 09:21:16;;;;;;;21.40;15.18;;;;;;;;;;5037856;28;20041;-63
2023/01/18 09:23:42;;;;;;;22.75;14.43;;;;;;;;;;5040802;28;20405;-64
2023/01/18 09:26:15;;;;;;;16.05;12.85;;;;;;;;;;5041067;28;20108;-64
2023/01/18 09:28:47;;;;;;;19.83;12.85;;;;;;;;;;5038662;28;20033;-64
2023/01/18 09:31:13;;;;;;;18.45;12.07;;;;;;;;;;5037439;28;20056;-64
2023/01/18 09:33:41;;;;;;;17.13;14.13;;;;;;;;;;5039664;28;20527;-64
2023/01/18 09:36:09;;;;;;;15.02;12.00;;;;;;;;;;5041200;28;20037;-64
2023/01/18 09:38:36;;;;;;;13.70;11.98;;;;;;;;;;5036590;28;20072;-64
2023/01/18 09:41:05;;;;;;;19.45;14.35;;;;;;;;;;5044976;28;20037;-64
2023/01/18 09:43:39;;;;;;;;;;;;;;;;;;5037801;28;20033;-64
2023/01/18 09:46:17;;;;;;;20.17;12.98;;;;;;;;;;5034507;28;19917;-64
2023/01/18 09:48:44;;;;;;;21.50;16.27;;;;;;;;;;5042868;28;20079;-64
2023/01/18 09:51:19;;;;;;;15.82;12.48;;;;;;;;;;5038085;28;20141;-64
2023/01/18 09:54:06;;;;;;;19.25;15.20;;;;;;;;;;5040373;28;20464;-64
2023/01/18 09:56:55;;;;;;;16.75;13.27;;;;;;;;;;5042748;28;20519;-64
2023/01/18 09:59:22;;;;;;;10.48;9.32;;;;;;;;;;5010553;28;20493;-62
2023/01/18 10:01:49;;;;;;;11.18;9.13;;;;;;;;;;5026452;28;20396;-63
2023/01/18 10:04:22;;;;;;;13.15;11.63;;;;;;;;;;5044522;28;20119;-62
2023/01/18 10:07:02;;;;;;;13.40;11.05;;;;;;;;;;5037861;28;20033;-63
2023/01/18 10:09:33;;;;;;;14.07;11.43;;;;;;;;;;5039640;28;20065;-63
2023/01/18 10:12:01;;;;;;;12.32;10.13;;;;;;;;;;5038018;28;20040;-64
2023/01/18 10:14:55;;;;;;;17.40;14.68;;;;;;;;;;5044672;28;20503;-64
2023/01/18 10:17:23;;;;;;;13.43;10.63;;;;;;;;;;5040745;28;20037;-63
2023/01/18 10:19:49;;;;;;;19.25;12.77;;;;;;;;;;5037657;28;20108;-63
2023/01/18 10:22:31;;;;;;;16.90;14.25;;;;;;;;;;5036909;28;20037;-63
2023/01/18 10:25:25;;;;;;;13.25;11.85;;;;;;;;;;5042588;28;20036;-64
2023/01/18 10:27:56;;;;;;;15.48;12.10;;;;;;;;;;5037518;28;20081;-64
2023/01/18 10:30:47;;;;;;;15.73;13.98;;;;;;;;;;5036676;28;20028;-63
2023/01/18 10:33:22;;;;;;;15.90;11.30;;;;;;;;;;5040035;28;20429;-63
2023/01/18 10:35:51;;;;;;;17.77;11.60;;;;;;;;;;5036852;28;20124;-64
2023/01/18 10:38:20;;;;;;;20.75;14.93;;;;;;;;;;5037846;28;20518;-63
2023/01/18 10:41:04;;;;;;;16.52;13.48;;;;;;;;;;5041350;28;20033;-65
2023/01/18 10:43:30;;;;;;;14.05;11.30;;;;;;;;;;5039926;28;20063;-63
2023/01/18 10:45:56;;;;;;;14.30;11.27;;;;;;;;;;5037096;28;20048;-64
2023/01/18 10:48:32;;;;;;;12.32;9.63;;;;;;;;;;5036862;28;20030;-63
2023/01/18 10:51:04;;;;;;;12.57;10.80;;;;;;;;;;5035584;28;20103;-64
2023/01/18 10:53:32;;;;;;;16.67;11.13;;;;;;;;;;5039125;28;20028;-65
2023/01/18 10:56:08;;;;;;;13.82;10.95;;;;;;;;;;5038626;28;20416;-64
2023/01/18 10:58:49;;;;;;;14.57;11.95;;;;;;;;;;5039347;28;20044;-64
2023/01/18 11:01:23;;;;;;;16.33;11.75;;;;;;;;;;5038269;28;20407;-63
2023/01/18 11:04:20;;;;;;;17.67;12.07;;;;;;;;;;5036684;28;20028;-64
2023/01/18 11:06:52;;;;;;;17.60;11.40;;;;;;;;;;5029388;28;20075;-64
2023/01/18 11:09:41;;;;;;;13.43;10.10;;;;;;;;;;5033906;28;20095;-64
2023/01/18 11:12:32;;;;;;;11.05;9.65;;;;;;;;;;5035738;28;20021;-62
2023/01/18 11:15:13;;;;;;;13.25;10.73;;;;;;;;;;5039484;28;20040;-63
2023/01/18 11:17:55;;;;;;;17.92;12.27;;;;;;;;;;5042493;28;20116;-63
2023/01/18 11:20:29;;;;;;;14.60;10.68;;;;;;;;;;5035909;28;20090;-63
2023/01/18 11:23:02;;;;;;;14.65;10.68;;;;;;;;;;5037990;28;20277;-64
2023/01/18 11:25:37;;;;;;;13.82;10.38;;;;;;;;;;5038259;28;20021;-64
2023/01/18 11:28:07;;;;;;;8.95;8.02;;;;;;;;;;5033203;28;20072;-64
2023/01/18 11:30:33;;;;;;;12.90;9.07;;;;;;;;;;5037475;28;20496;-64
2023/01/18 11:32:59;;;;;;;14.07;10.80;;;;;;;;;;5041707;28;20051;-64
2023/01/18 11:35:35;;;;;;;13.55;10.15;;;;;;;;;;5037699;28;20056;-64
2023/01/18 11:38:05;;;;;;;14.27;10.45;;;;;;;;;;5038187;28;20029;-64
2023/01/18 11:40:33;;;;;;;12.05;9.88;;;;;;;;;;5042268;28;20037;-64
2023/01/18 11:43:16;;;;;;;13.10;10.68;;;;;;;;;;5062168;22;20128;-65
2023/01/18 11:45:44;;;;;;;10.80;8.75;;;;;;;;;;5045363;28;20084;-63
2023/01/18 11:48:43;;;;;;;15.10;11.13;;;;;;;;;;5045542;28;20032;-65
2023/01/18 11:51:33;;;;;;;16.23;10.40;;;;;;;;;;5044183;28;20044;-65
2023/01/18 11:54:10;;;;;;;18.42;10.07;;;;;;;;;;5039085;28;20395;-65
2023/01/18 11:56:54;;;;;;;15.90;9.88;;;;;;;;;;5032334;28;20034;-65
2023/01/18 11:59:28;;;;;;;19.13;12.80;;;;;;;;;;5040675;28;20029;-65
2023/01/18 12:01:53;;;;;;;17.13;11.40;;;;;;;;;;5038729;28;20507;-66
2023/01/18 12:04:38;;;;;;;13.82;9.90;;;;;;;;;;5038816;28;20116;-66
2023/01/18 12:07:26;;;;;;;13.77;11.25;;;;;;;;;;5039297;28;20026;-65
2023/01/18 12:09:54;;;;;;;16.25;10.85;;;;;;;;;;5048533;28;20044;-65
2023/01/18 12:12:57;;;;;;;15.30;10.10;;;;;;;;;;5041204;28;20029;-66
2023/01/18 12:15:37;;;;;;;14.55;10.52;;;;;;;;;;5039244;28;20036;-66
2023/01/18 12:18:11;;;;;;;13.23;10.43;;;;;;;;;;5042792;28;20407;-65
2023/01/18 12:20:52;;;;;;;11.82;9.43;;;;;;;;;;5046384;28;20060;-70
2023/01/18 12:23:52;;;;;;;10.30;7.95;;;;;;;;;;5042186;28;20099;-65
2023/01/18 12:26:45;;;;;;;16.77;11.15;;;;;;;;;;5039978;28;20049;-65
2023/01/18 12:29:43;;;;;;;16.58;10.30;;;;;;;;;;5045786;28;20039;-66
2023/01/18 12:32:15;;;;;;;14.00;9.73;;;;;;;;;;5042678;28;20358;-65
2023/01/18 12:34:47;;;;;;;13.27;9.70;;;;;;;;;;5041401;28;20136;-66
2023/01/18 12:37:59;;;;;;;10.55;8.13;;;;;;;;;;5038097;28;20028;-65
2023/01/18 12:40:36;;;;;;;11.65;8.75;;;;;;;;;;5031447;28;20047;-66
2023/01/18 12:43:17;;;;;;;14.18;8.60;;;;;;;;;;5042107;28;20039;-65
2023/01/18 12:46:07;;;;;;;7.68;6.75;;;;;;;;;;5036747;28;20032;-65
2023/01/18 12:48:45;;;;;;;12.18;8.60;;;;;;;;;;5039875;28;20053;-65
2023/01/18 12:51:15;;;;;;;14.23;9.50;;;;;;;;;;5041147;28;20045;-65
2023/01/18 12:53:52;;;;;;;12.32;8.73;;;;;;;;;;5035471;28;20161;-65
2023/01/18 12:56:39;;;;;;;11.48;6.70;;;;;;;;;;5039265;28;20040;-65
2023/01/18 12:59:10;;;;;;;13.88;8.93;;;;;;;;;;5037201;28;20064;-65
2023/01/18 13:01:46;;;;;;;12.55;8.52;;;;;;;;;;5043685;28;20036;-65
2023/01/18 13:04:23;;;;;;;11.85;7.85;;;;;;;;;;5040165;28;20039;-65
2023/01/18 13:06:54;;;;;;;15.60;9.40;;;;;;;;;;5042593;28;20113;-65
2023/01/18 13:09:25;;;;;;;14.70;8.90;;;;;;;;;;5040054;28;20082;-65
2023/01/18 13:11:51;;;;;;;12.23;8.30;;;;;;;;;;5033923;28;20163;-66
2023/01/18 13:14:24;;;;;;;16.67;9.27;;;;;;;;;;5019396;28;20467;-65
2023/01/18 13:17:03;;;;;;;11.70;8.25;;;;;;;;;;5041859;28;20074;-65
2023/01/18 13:19:39;;;;;;;13.52;9.40;;;;;;;;;;5025270;28;20132;-64
2023/01/18 13:22:08;;;;;;;11.43;7.63;;;;;;;;;;5036165;28;20036;-62
2023/01/18 13:25:14;;;;;;;10.55;6.68;;;;;;;;;;5039335;28;20033;-65
2023/01/18 13:27:56;;;;;;;13.05;8.32;;;;;;;;;;5035148;28;20041;-64
2023/01/18 13:30:23;;;;;;;9.32;7.03;;;;;;;;;;5036854;28;20037;-67
2023/01/18 13:32:50;;;;;;;14.52;8.68;;;;;;;;;;5034216;28;20115;-65
2023/01/18 13:35:21;;;;;;;11.05;7.65;;;;;;;;;;5040927;28;20052;-66
2023/01/18 13:37:56;;;;;;;10.00;7.40;;;;;;;;;;5039519;28;20462;-65
2023/01/18 13:40:36;;;;;;;11.48;7.63;;;;;;;;;;5035931;28;20340;-65
2023/01/18 13:43:04;;;;;;;11.10;7.75;;;;;;;;;;5022918;28;20563;-65
2023/01/18 13:45:31;;;;;;;11.23;8.20;;;;;;;;;;5044805;28;20609;-65
2023/01/18 13:48:06;;;;;;;11.07;8.32;;;;;;;;;;5041407;28;20115;-64
2023/01/18 13:50:35;;;;;;;11.80;8.05;;;;;;;;;;5034903;28;20044;-64
2023/01/18 13:53:13;;;;;;;;;;;;;;;;;;5037071;28;20034;-65
2023/01/18 13:55:48;;;;;;;14.35;9.13;;;;;;;;;;5037296;28;20358;-64
2023/01/18 13:58:23;;;;;;;10.13;7.30;;;;;;;;;;5029486;28;20064;-65
2023/01/18 14:00:49;;;;;;;9.13;7.47;;;;;;;;;;5033401;28;20041;-67
2023/01/18 14:03:21;;;;;;;7.85;7.05;;;;;;;;;;5030003;28;20122;-65
2023/01/18 14:05:47;;;;;;;12.82;7.20;;;;;;;;;;5041371;28;20033;-66
2023/01/18 14:08:22;;;;;;;13.10;8.38;;;;;;;;;;5040748;28;20033;-65
2023/01/18 14:10:52;;;;;;;12.60;8.70;;;;;;;;;;5044032;28;20040;-66
2023/01/18 14:13:43;;;;;;;11.02;7.22;;;;;;;;;;5037702;28;20128;-66
2023/01/18 14:16:28;;;;;;;10.50;7.60;;;;;;;;;;5033570;28;20045;-70
2023/01/18 14:19:17;;;;;;;13.85;7.82;;;;;;;;;;5036981;28;20052;-65
2023/01/18 14:21:59;;;;;;;8.73;6.53;;;;;;;;;;5040287;28;20124;-66
2023/01/18 14:24:36;;;;;;;8.73;6.88;;;;;;;;;;5036384;28;20028;-66
2023/01/18 14:27:05;;;;;;;14.98;8.00;;;;;;;;;;5032665;28;20033;-65
2023/01/18 14:29:30;;;;;;;9.68;7.50;;;;;;;;;;5036597;28;20045;-64
2023/01/18 14:31:57;;;;;;;9.52;7.45;;;;;;;;;;5039938;28;20040;-65
2023/01/18 14:34:29;;;;;;;12.70;7.85;;;;;;;;;;5041947;28;20098;-65
2023/01/18 14:36:56;;;;;;;9.77;7.90;;;;;;;;;;5033400;28;20036;-64
2023/01/18 14:39:22;;;;;;;12.88;7.60;;;;;;;;;;5036312;28;20029;-64
2023/01/18 14:42:00;;;;;;;10.88;8.35;;;;;;;;;;5034732;28;20082;-65
2023/01/18 14:44:35;;;;;;;14.50;7.43;;;;;;;;;;5041962;28;20036;-65
2023/01/18 14:47:01;;;;;;;12.32;8.05;;;;;;;;;;5037241;28;20052;-65
2023/01/18 14:49:34;;;;;;;9.98;7.00;;;;;;;;;;5032348;28;20033;-65
2023/01/18 14:52:01;;;;;;;10.10;7.05;;;;;;;;;;5040306;28;20033;-65
2023/01/18 14:54:27;;;;;;;11.07;7.25;;;;;;;;;;5032366;28;20041;-65
2023/01/18 14:57:01;;;;;;;10.52;6.95;;;;;;;;;;5038702;28;20029;-65
2023/01/18 14:59:29;;;;;;;12.60;8.43;;;;;;;;;;5031432;28;20456;-65
2023/01/18 15:02:14;;;;;;;10.00;7.25;;;;;;;;;;5035396;28;20529;-65
2023/01/18 15:04:44;;;;;;;10.85;7.43;;;;;;;;;;5032473;28;20112;-65
2023/01/18 15:07:16;;;;;;;10.00;7.18;;;;;;;;;;5035205;28;20121;-65
2023/01/18 15:09:44;;;;;;;11.38;7.20;;;;;;;;;;5034088;28;20403;-65
2023/01/18 15:12:14;;;;;;;8.07;6.65;;;;;;;;;;5033382;28;20037;-65
2023/01/18 15:14:46;;;;;;;12.02;7.47;;;;;;;;;;5046795;28;20067;-65
2023/01/18 15:17:22;;;;;;;12.18;8.48;;;;;;;;;;5031618;28;20045;-65